Airfield :
LOGIN :

Register | Disclaimer

   EN    FR    IT 

 










Legend :    VFR   Marginal VFR   IFR   Intensive IFR   Very Intensive IFR
Visi :
Ceiling :
>= 8 km
>= 3000ft
5 to 8 km
1000 to 3000 ft
1500m to 5 km
500 to 1000 ft
800 to 1500m
200 to 500 ft
< 800m
< 200 ft
Symbols :   Thunderstorms  Fog  Heavy snow  Heavy precipitations  Wind > 20 kt
SIGMETs :     Misc.  Thunderstorms  Icing  Turbulence  Mountain Waves  Volcanic Ashes







- Airport Elevation : 464 ft
- IATA code : EVX
- Download approach charts


LFOE - Evreux

CURRENT METAR :
  • 241800Z AUTO 31007KT CAVOK 18/09 Q1017 NOSIG

EXPIRED METARs :
  • 241730Z AUTO 30009KT CAVOK 19/09 Q1017 NOSIG
  • 241700Z AUTO 29010KT CAVOK 19/09 Q1017 NOSIG
  • 241630Z AUTO 28008KT 240V320 CAVOK 20/09 Q1017 NOSIG
  • 241600Z AUTO 29009KT 250V310 CAVOK 20/08 Q1017 TEMPO 32015G25KT 4000 -SHRA SCT040TCU
  • 241530Z AUTO 26010KT CAVOK 20/09 Q1017 TEMPO 32015G25KT 4000 -SHRA SCT040TCU
  • 241500Z AUTO 28007KT 240V320 9999 FEW045 20/09 Q1017 TEMPO 32015G25KT 4000 -SHRA SCT040TCU

TAF TAF LFOE
Valid from the 24 at 15:00 until the 25 at 15:00 UTC


241400Z 2415/2515 30010KT 9999 SCT035
PROB30
TEMPO 2415/2417 32015G25KT 4000 -SHRA SCT040TCU
PROB40
TEMPO 2512/2515 VRB15G25KT 4000 -SHRA SCT040CB
No reported NOTAMs for that airfield.



MET'MAP, your aeronautical weather chart ! - Copyright ORBIFLY December 2007 - Disclaimer

ORBIFLY MET'MAP TEAM :

Programming & Development : Alexandra Zaïnal
Concept & Development : Baudouin d'Aumeries
Co-Development & Prog : Marc-Olivier Méhu
Technical & hardware support : Manuel Goepfert

Contact : metmap@orbifly.com




SOURCES & CREDITS :

   NOAA